createdAt,value
2022-10-17T00:00:27.518Z,75.73
2022-10-17T00:05:40.318Z,75.49
2022-10-17T00:10:56.888Z,75.64
2022-10-17T00:16:05.172Z,75.71
2022-10-17T00:21:20.534Z,75.71
2022-10-17T00:26:31.661Z,75.58
2022-10-17T00:31:46.094Z,75.43
2022-10-17T00:36:59.920Z,75.35
2022-10-17T00:42:15.067Z,75.32
2022-10-17T00:47:28.055Z,75.51
2022-10-17T00:52:40.367Z,75.79
2022-10-17T00:57:54.153Z,75.83
2022-10-17T01:03:04.418Z,75.65
2022-10-17T01:08:18.349Z,75.77
2022-10-17T01:13:32.005Z,75.63
2022-10-17T01:18:54.489Z,75.66
2022-10-17T01:24:48.473Z,75.50
2022-10-17T01:30:22.539Z,75.70
2022-10-17T01:35:50.198Z,75.65
2022-10-17T01:41:17.060Z,75.66
2022-10-17T01:46:34.903Z,75.84
2022-10-17T01:51:50.447Z,75.80
2022-10-17T01:57:03.375Z,75.91
2022-10-17T02:02:19.761Z,75.79
2022-10-17T02:07:30.133Z,75.97
2022-10-17T02:12:56.017Z,75.84
2022-10-17T02:18:19.085Z,76.02
2022-10-17T02:23:41.309Z,76.05
2022-10-17T02:29:01.032Z,75.96
2022-10-17T02:34:15.555Z,76.07
2022-10-17T02:39:31.745Z,76.22
2022-10-17T02:44:42.921Z,76.08
2022-10-17T02:49:55.235Z,76.03
2022-10-17T02:55:20.797Z,76.05
2022-10-17T03:00:30.513Z,76.24
2022-10-17T03:05:39.887Z,76.25
2022-10-17T03:10:48.469Z,76.44
2022-10-17T03:15:59.946Z,76.46
2022-10-17T03:21:08.555Z,76.35
2022-10-17T03:26:22.560Z,76.41
2022-10-17T03:31:58.597Z,76.32
2022-10-17T03:37:46.100Z,76.53
2022-10-17T03:43:19.784Z,76.80
2022-10-17T03:48:35.324Z,76.95
2022-10-17T03:53:54.298Z,76.96
2022-10-17T03:59:05.859Z,76.89
2022-10-17T04:04:39.534Z,76.84
2022-10-17T04:09:56.837Z,76.78
2022-10-17T04:15:17.954Z,76.65
2022-10-17T04:20:29.528Z,76.78
2022-10-17T04:25:55.353Z,76.93
2022-10-17T04:32:14.706Z,77.02
2022-10-17T04:37:52.842Z,77.11
2022-10-17T04:43:04.556Z,77.24
2022-10-17T04:48:23.291Z,77.40
2022-10-17T04:53:50.639Z,77.34
2022-10-17T04:59:26.952Z,77.41
2022-10-17T05:04:45.838Z,77.15
2022-10-17T05:09:55.587Z,77.21
2022-10-17T05:15:12.232Z,77.24
2022-10-17T05:20:43.592Z,77.22
2022-10-17T05:26:11.424Z,77.20
2022-10-17T05:31:28.616Z,77.29
2022-10-17T05:36:45.748Z,77.67
2022-10-17T05:41:57.785Z,77.56
2022-10-17T05:47:09.928Z,77.55
2022-10-17T05:52:33.628Z,77.37
2022-10-17T05:58:49.106Z,77.80
2022-10-17T06:04:48.946Z,77.69
2022-10-17T06:10:04.798Z,77.61
2022-10-17T06:15:20.642Z,77.95
2022-10-17T06:20:35.128Z,77.98
2022-10-17T06:25:49.175Z,77.96
2022-10-17T06:30:57.610Z,78.08
2022-10-17T06:36:07.401Z,78.10
2022-10-17T06:41:19.510Z,77.96
2022-10-17T06:46:30.138Z,77.92
2022-10-17T06:51:45.468Z,77.97
2022-10-17T06:56:58.236Z,77.89
2022-10-17T07:02:27.730Z,77.77
2022-10-17T07:07:41.533Z,77.70
2022-10-17T07:12:53.800Z,77.75
2022-10-17T07:18:54.175Z,78.04
2022-10-17T07:24:07.535Z,77.86
2022-10-17T07:29:17.055Z,77.73
2022-10-17T07:34:34.200Z,78.04
2022-10-17T07:39:59.149Z,78.20
2022-10-17T07:45:19.623Z,78.34
2022-10-17T07:50:33.111Z,77.86
2022-10-17T07:55:41.644Z,77.65
2022-10-17T08:01:27.324Z,77.49
2022-10-17T08:06:34.767Z,76.86
2022-10-17T08:11:44.143Z,76.53
2022-10-17T08:16:51.633Z,76.63
2022-10-17T08:22:01.736Z,76.19
2022-10-17T08:27:14.112Z,75.61
2022-10-17T08:32:26.344Z,75.22
2022-10-17T08:38:20.813Z,74.58
2022-10-17T08:43:41.037Z,74.28
2022-10-17T08:48:51.263Z,74.19
2022-10-17T08:54:03.680Z,74.24
2022-10-17T08:59:43.757Z,74.06
2022-10-17T09:05:31.092Z,73.81
2022-10-17T09:10:48.196Z,73.43
2022-10-17T09:16:21.094Z,73.39
2022-10-17T09:28:37.519Z,72.46
2022-10-17T09:34:22.996Z,71.98
2022-10-17T09:40:09.343Z,72.15
2022-10-17T09:45:32.530Z,72.13
2022-10-17T09:50:53.863Z,72.48
2022-10-17T09:56:19.229Z,72.14
2022-10-17T10:01:29.989Z,71.97
2022-10-17T10:06:37.645Z,71.93
2022-10-17T10:12:13.507Z,71.73
2022-10-17T10:18:00.671Z,71.41
2022-10-17T10:23:28.001Z,71.52
2022-10-17T10:29:07.493Z,71.39
2022-10-17T10:34:39.295Z,71.38
2022-10-17T10:40:21.552Z,71.17
2022-10-17T10:45:53.672Z,71.10
2022-10-17T10:51:07.127Z,70.89
2022-10-17T10:56:19.730Z,71.06
2022-10-17T11:01:35.870Z,70.60
2022-10-17T11:06:46.417Z,70.39
2022-10-17T11:12:02.218Z,70.36
2022-10-17T11:17:19.568Z,70.28
2022-10-17T11:22:47.496Z,69.92
2022-10-17T11:28:04.708Z,69.76
2022-10-17T11:33:29.670Z,69.75
2022-10-17T11:38:47.655Z,69.68
2022-10-17T11:44:00.865Z,69.42
2022-10-17T11:49:20.048Z,69.24
2022-10-17T11:54:39.881Z,69.10
2022-10-17T12:00:33.587Z,68.94
2022-10-17T12:05:59.516Z,68.63
2022-10-17T12:11:21.852Z,68.38
2022-10-17T12:16:51.679Z,68.31
2022-10-17T12:22:01.646Z,68.00
2022-10-17T12:27:32.976Z,67.81
2022-10-17T12:33:05.563Z,67.69
2022-10-17T12:38:30.904Z,67.55
2022-10-17T12:43:55.463Z,67.35
2022-10-17T12:49:21.681Z,67.17
2022-10-17T12:54:37.839Z,67.11
2022-10-17T12:59:58.719Z,67.04
2022-10-17T13:05:33.215Z,66.89
2022-10-17T13:10:43.789Z,66.80
2022-10-17T13:15:53.836Z,66.78
2022-10-17T13:21:05.497Z,66.65
2022-10-17T13:26:40.477Z,66.63
2022-10-17T13:31:53.564Z,66.52
2022-10-17T13:37:04.768Z,66.33
2022-10-17T13:42:22.989Z,66.28
2022-10-17T13:47:38.042Z,66.01
2022-10-17T13:52:45.757Z,65.83
2022-10-17T13:57:53.110Z,65.71
2022-10-17T14:03:02.962Z,65.62
2022-10-17T14:08:23.328Z,65.54
2022-10-17T14:13:35.847Z,65.45
2022-10-17T14:18:48.084Z,65.47
2022-10-17T14:24:16.035Z,65.39
2022-10-17T14:29:28.277Z,65.43
2022-10-17T14:34:40.722Z,65.33
2022-10-17T14:39:55.485Z,65.33
2022-10-17T14:45:21.275Z,65.32
2022-10-17T14:50:31.529Z,65.33
2022-10-17T14:55:55.574Z,65.36
2022-10-17T15:01:47.791Z,65.42
2022-10-17T15:07:15.477Z,65.49
2022-10-17T15:12:59.222Z,65.46
2022-10-17T15:18:18.351Z,65.58
2022-10-17T15:23:29.123Z,65.67
2022-10-17T15:28:41.630Z,65.66
2022-10-17T15:33:53.063Z,65.77
2022-10-17T15:46:47.327Z,65.88
2022-10-17T15:52:07.057Z,65.96
2022-10-17T15:57:21.085Z,66.04
2022-10-17T16:02:30.051Z,66.18
2022-10-17T16:07:38.511Z,66.26
2022-10-17T16:12:50.247Z,66.35
2022-10-17T16:18:05.875Z,66.41
2022-10-17T16:23:22.708Z,66.41
2022-10-17T16:28:30.582Z,66.51
2022-10-17T16:33:38.596Z,66.75
2022-10-17T16:38:54.324Z,66.84
2022-10-17T16:44:03.433Z,66.96
2022-10-17T16:49:16.178Z,67.05
2022-10-17T16:54:23.867Z,67.11
2022-10-17T16:59:32.170Z,67.27
2022-10-17T17:04:39.681Z,67.38
2022-10-17T17:09:54.976Z,67.59
2022-10-17T17:15:03.306Z,67.66
2022-10-17T17:20:11.358Z,67.82
2022-10-17T17:25:19.785Z,67.96
2022-10-17T17:30:28.448Z,68.08
2022-10-17T17:35:36.229Z,68.19
2022-10-17T17:40:50.881Z,68.15
2022-10-17T17:45:59.026Z,68.36
2022-10-17T17:51:29.507Z,68.46
2022-10-17T17:56:40.774Z,68.47
2022-10-17T18:01:48.890Z,68.53
2022-10-17T18:07:24.812Z,68.51
2022-10-17T18:12:34.879Z,68.60
2022-10-17T18:17:49.693Z,68.68
2022-10-17T18:23:04.092Z,68.77
2022-10-17T18:28:23.880Z,68.65
2022-10-17T18:33:31.660Z,68.69
2022-10-17T18:38:39.257Z,68.73
2022-10-17T18:43:51.554Z,68.84
2022-10-17T18:48:59.919Z,68.89
2022-10-17T18:54:13.665Z,69.03
2022-10-17T18:59:22.522Z,69.29
2022-10-17T19:04:31.067Z,69.32
2022-10-17T19:11:09.865Z,69.44
2022-10-17T19:16:10.437Z,69.50
2022-10-17T19:21:22.430Z,69.52
2022-10-17T19:26:33.410Z,69.63
2022-10-17T19:31:45.426Z,69.58
2022-10-17T19:37:02.317Z,69.56
2022-10-17T19:42:20.437Z,69.45
2022-10-17T19:47:32.308Z,69.38
2022-10-17T19:52:38.996Z,69.66
2022-10-17T19:57:59.562Z,69.75
2022-10-17T20:03:10.884Z,69.89
2022-10-17T20:08:22.647Z,69.88
2022-10-17T20:13:40.304Z,69.90
2022-10-17T20:18:57.509Z,69.98
2022-10-17T20:24:08.232Z,70.09
2022-10-17T20:36:41.242Z,70.07
2022-10-17T20:41:55.173Z,70.21
2022-10-17T21:01:28.001Z,71.22
2022-10-17T21:06:43.729Z,71.23
2022-10-17T21:12:04.192Z,71.23
2022-10-17T21:25:27.544Z,71.26
2022-10-17T21:31:33.315Z,71.66
2022-10-17T21:37:02.322Z,71.67
2022-10-17T21:42:26.182Z,71.68
2022-10-17T21:48:11.637Z,71.68
2022-10-17T21:53:35.055Z,71.80
2022-10-17T21:58:46.308Z,71.86
2022-10-17T22:04:00.719Z,71.73
2022-10-17T22:09:13.149Z,71.80
2022-10-17T22:14:22.889Z,71.72
2022-10-17T22:19:32.411Z,71.89
2022-10-17T22:24:45.078Z,71.88
2022-10-17T22:30:05.729Z,71.90
2022-10-17T22:35:43.274Z,71.92
2022-10-17T22:40:58.325Z,71.96
2022-10-17T22:46:12.459Z,72.10
2022-10-17T22:51:26.654Z,72.29
2022-10-17T22:56:39.361Z,72.43
2022-10-17T23:01:47.048Z,72.35
2022-10-17T23:06:54.977Z,72.45
2022-10-17T23:12:07.852Z,72.44
2022-10-17T23:17:17.488Z,72.48
2022-10-17T23:22:27.621Z,72.50
2022-10-17T23:27:37.102Z,72.50
2022-10-17T23:32:48.904Z,72.50
2022-10-17T23:37:56.292Z,72.45
2022-10-17T23:43:07.124Z,72.57
2022-10-17T23:48:15.469Z,72.58
2022-10-17T23:53:25.002Z,72.64
2022-10-17T23:58:37.088Z,72.65
